Terminal Aerodrome Forecast
Issued by NWS

Home | Current Version | Previous Version | Text Only | Print | Product List | Glossary Off
Versions: 1 2 3 4 5 6 7 8 9 10 11 12 13 14 15 16 17 18 19 20 21 22

000
FTUS43 KBIS 151737
TAFJMS
TAF
KJMS 151737Z 1518/1618 15011KT P6SM VCSH SCT015 BKN100
     FM152100 12007KT P6SM -SHRA SCT015 OVC035
     FM160200 09007KT 5SM SHRA BR VCTS BKN015 OVC035CB
     FM160700 09005KT 6SM BR VCSH OVC007
     FM160900 36006KT 6SM BR VCSH OVC003=

USA.gov is the U.S. government's official web portal to all federal, state and local government web resources and services.